sensor_id;sensor_type;location;lat;lon;timestamp;P1;durP1;ratioP1;P2;durP2;ratioP2
61471;SDS011;47337;54.068;12.114;2022-10-16T00:00:40;5.97;;;4.68;;
61471;SDS011;47337;54.068;12.114;2022-10-16T00:03:06;6.38;;;4.93;;
61471;SDS011;47337;54.068;12.114;2022-10-16T00:05:38;6.70;;;5.03;;
61471;SDS011;47337;54.068;12.114;2022-10-16T00:08:08;6.90;;;5.20;;
61471;SDS011;47337;54.068;12.114;2022-10-16T00:10:35;7.53;;;5.05;;
61471;SDS011;47337;54.068;12.114;2022-10-16T00:13:01;6.13;;;5.38;;
61471;SDS011;47337;54.068;12.114;2022-10-16T00:15:27;7.68;;;5.32;;
61471;SDS011;47337;54.068;12.114;2022-10-16T00:17:52;6.97;;;5.95;;
61471;SDS011;47337;54.068;12.114;2022-10-16T00:20:17;7.18;;;5.68;;
61471;SDS011;47337;54.068;12.114;2022-10-16T00:22:43;7.47;;;5.55;;
61471;SDS011;47337;54.068;12.114;2022-10-16T00:25:08;8.40;;;6.13;;
61471;SDS011;47337;54.068;12.114;2022-10-16T00:27:36;7.93;;;6.38;;
61471;SDS011;47337;54.068;12.114;2022-10-16T00:30:04;7.32;;;5.82;;
61471;SDS011;47337;54.068;12.114;2022-10-16T00:32:29;8.55;;;6.55;;
61471;SDS011;47337;54.068;12.114;2022-10-16T00:34:57;10.27;;;7.13;;
61471;SDS011;47337;54.068;12.114;2022-10-16T00:37:23;9.00;;;6.53;;
61471;SDS011;47337;54.068;12.114;2022-10-16T00:39:48;7.07;;;5.97;;
61471;SDS011;47337;54.068;12.114;2022-10-16T00:42:19;11.48;;;6.70;;
61471;SDS011;47337;54.068;12.114;2022-10-16T00:44:52;9.18;;;6.38;;
61471;SDS011;47337;54.068;12.114;2022-10-16T00:50:00;10.40;;;6.53;;
61471;SDS011;47337;54.068;12.114;2022-10-16T00:52:39;11.55;;;6.93;;
61471;SDS011;47337;54.068;12.114;2022-10-16T00:55:09;9.63;;;7.47;;
61471;SDS011;47337;54.068;12.114;2022-10-16T00:57:35;10.23;;;7.30;;
61471;SDS011;47337;54.068;12.114;2022-10-16T01:00:02;10.82;;;7.60;;
61471;SDS011;47337;54.068;12.114;2022-10-16T01:02:30;10.23;;;6.90;;
61471;SDS011;47337;54.068;12.114;2022-10-16T01:04:55;10.88;;;7.32;;
61471;SDS011;47337;54.068;12.114;2022-10-16T01:18:00;12.20;;;7.53;;
61471;SDS011;47337;54.068;12.114;2022-10-16T01:20:30;10.25;;;7.68;;
61471;SDS011;47337;54.068;12.114;2022-10-16T01:28:29;9.88;;;7.88;;
61471;SDS011;47337;54.068;12.114;2022-10-16T01:33:28;10.27;;;6.22;;
61471;SDS011;47337;54.068;12.114;2022-10-16T01:36:02;9.40;;;7.15;;
61471;SDS011;47337;54.068;12.114;2022-10-16T01:38:36;9.63;;;6.70;;
61471;SDS011;47337;54.068;12.114;2022-10-16T01:41:09;11.45;;;7.88;;
61471;SDS011;47337;54.068;12.114;2022-10-16T01:43:41;11.85;;;7.55;;
61471;SDS011;47337;54.068;12.114;2022-10-16T01:46:11;11.02;;;7.88;;
61471;SDS011;47337;54.068;12.114;2022-10-16T01:48:41;11.48;;;8.05;;
61471;SDS011;47337;54.068;12.114;2022-10-16T01:51:07;14.10;;;8.85;;
61471;SDS011;47337;54.068;12.114;2022-10-16T01:53:36;11.68;;;8.65;;
61471;SDS011;47337;54.068;12.114;2022-10-16T01:56:03;14.27;;;9.18;;
61471;SDS011;47337;54.068;12.114;2022-10-16T01:58:36;16.13;;;9.37;;
61471;SDS011;47337;54.068;12.114;2022-10-16T02:01:06;15.38;;;9.38;;
61471;SDS011;47337;54.068;12.114;2022-10-16T02:03:35;15.10;;;9.55;;
61471;SDS011;47337;54.068;12.114;2022-10-16T02:06:05;16.58;;;9.57;;
61471;SDS011;47337;54.068;12.114;2022-10-16T02:08:32;15.73;;;9.60;;
61471;SDS011;47337;54.068;12.114;2022-10-16T02:10:59;13.07;;;9.50;;
61471;SDS011;47337;54.068;12.114;2022-10-16T02:13:30;17.10;;;9.82;;
61471;SDS011;47337;54.068;12.114;2022-10-16T02:16:02;13.88;;;9.23;;
61471;SDS011;47337;54.068;12.114;2022-10-16T02:18:28;13.25;;;9.15;;
61471;SDS011;47337;54.068;12.114;2022-10-16T02:21:38;12.55;;;8.70;;
61471;SDS011;47337;54.068;12.114;2022-10-16T02:26:43;10.75;;;7.93;;
61471;SDS011;47337;54.068;12.114;2022-10-16T02:29:16;13.10;;;8.45;;
61471;SDS011;47337;54.068;12.114;2022-10-16T02:31:51;10.95;;;7.78;;
61471;SDS011;47337;54.068;12.114;2022-10-16T02:36:49;12.35;;;7.50;;
61471;SDS011;47337;54.068;12.114;2022-10-16T02:39:16;10.85;;;6.53;;
61471;SDS011;47337;54.068;12.114;2022-10-16T02:41:45;13.85;;;7.32;;
61471;SDS011;47337;54.068;12.114;2022-10-16T02:44:11;10.98;;;7.28;;
61471;SDS011;47337;54.068;12.114;2022-10-16T02:46:36;9.35;;;7.18;;
61471;SDS011;47337;54.068;12.114;2022-10-16T02:49:04;8.82;;;6.60;;
61471;SDS011;47337;54.068;12.114;2022-10-16T02:51:29;10.70;;;6.35;;
61471;SDS011;47337;54.068;12.114;2022-10-16T02:53:55;13.85;;;6.80;;
61471;SDS011;47337;54.068;12.114;2022-10-16T02:56:20;9.00;;;6.28;;
61471;SDS011;47337;54.068;12.114;2022-10-16T02:58:49;10.57;;;6.22;;
61471;SDS011;47337;54.068;12.114;2022-10-16T03:01:14;9.30;;;6.82;;
61471;SDS011;47337;54.068;12.114;2022-10-16T03:03:41;10.02;;;7.25;;
61471;SDS011;47337;54.068;12.114;2022-10-16T03:06:07;17.90;;;7.53;;
61471;SDS011;47337;54.068;12.114;2022-10-16T03:08:35;10.77;;;7.28;;
61471;SDS011;47337;54.068;12.114;2022-10-16T03:11:00;12.68;;;7.60;;
61471;SDS011;47337;54.068;12.114;2022-10-16T03:13:28;11.45;;;7.60;;
61471;SDS011;47337;54.068;12.114;2022-10-16T03:15:53;10.50;;;7.20;;
61471;SDS011;47337;54.068;12.114;2022-10-16T03:18:19;12.90;;;8.25;;
61471;SDS011;47337;54.068;12.114;2022-10-16T03:20:44;12.15;;;7.95;;
61471;SDS011;47337;54.068;12.114;2022-10-16T03:23:10;14.07;;;8.38;;
61471;SDS011;47337;54.068;12.114;2022-10-16T03:25:35;12.07;;;8.45;;
61471;SDS011;47337;54.068;12.114;2022-10-16T03:28:01;13.20;;;8.38;;
61471;SDS011;47337;54.068;12.114;2022-10-16T03:30:26;13.60;;;8.68;;
61471;SDS011;47337;54.068;12.114;2022-10-16T03:32:52;13.68;;;8.77;;
61471;SDS011;47337;54.068;12.114;2022-10-16T03:35:21;11.20;;;7.97;;
61471;SDS011;47337;54.068;12.114;2022-10-16T03:37:48;11.70;;;7.97;;
61471;SDS011;47337;54.068;12.114;2022-10-16T03:40:13;13.43;;;7.95;;
61471;SDS011;47337;54.068;12.114;2022-10-16T03:42:40;13.57;;;7.25;;
61471;SDS011;47337;54.068;12.114;2022-10-16T03:45:09;13.70;;;7.38;;
61471;SDS011;47337;54.068;12.114;2022-10-16T03:47:36;11.02;;;7.50;;
61471;SDS011;47337;54.068;12.114;2022-10-16T03:50:01;13.20;;;7.25;;
61471;SDS011;47337;54.068;12.114;2022-10-16T03:52:27;12.70;;;6.93;;
61471;SDS011;47337;54.068;12.114;2022-10-16T03:54:52;13.13;;;7.20;;
61471;SDS011;47337;54.068;12.114;2022-10-16T03:57:18;12.40;;;6.72;;
61471;SDS011;47337;54.068;12.114;2022-10-16T03:59:43;10.35;;;6.60;;
61471;SDS011;47337;54.068;12.114;2022-10-16T04:02:09;9.73;;;6.43;;
61471;SDS011;47337;54.068;12.114;2022-10-16T04:04:34;8.98;;;6.50;;
61471;SDS011;47337;54.068;12.114;2022-10-16T04:07:00;10.23;;;6.38;;
61471;SDS011;47337;54.068;12.114;2022-10-16T04:09:25;9.52;;;6.45;;
61471;SDS011;47337;54.068;12.114;2022-10-16T04:11:54;9.35;;;6.22;;
61471;SDS011;47337;54.068;12.114;2022-10-16T04:14:19;10.30;;;6.45;;
61471;SDS011;47337;54.068;12.114;2022-10-16T04:16:44;9.55;;;6.50;;
61471;SDS011;47337;54.068;12.114;2022-10-16T04:19:17;9.85;;;6.15;;
61471;SDS011;47337;54.068;12.114;2022-10-16T04:21:42;8.70;;;6.07;;
61471;SDS011;47337;54.068;12.114;2022-10-16T04:24:08;11.57;;;6.68;;
61471;SDS011;47337;54.068;12.114;2022-10-16T04:26:36;10.55;;;6.53;;
61471;SDS011;47337;54.068;12.114;2022-10-16T04:29:02;14.32;;;6.75;;
61471;SDS011;47337;54.068;12.114;2022-10-16T04:31:27;10.50;;;6.60;;
61471;SDS011;47337;54.068;12.114;2022-10-16T04:33:53;11.75;;;6.25;;
61471;SDS011;47337;54.068;12.114;2022-10-16T04:36:18;12.35;;;6.43;;
61471;SDS011;47337;54.068;12.114;2022-10-16T04:38:46;12.48;;;7.07;;
61471;SDS011;47337;54.068;12.114;2022-10-16T04:41:11;8.35;;;6.03;;
61471;SDS011;47337;54.068;12.114;2022-10-16T04:43:36;10.13;;;6.13;;
61471;SDS011;47337;54.068;12.114;2022-10-16T04:46:02;15.20;;;6.90;;
61471;SDS011;47337;54.068;12.114;2022-10-16T04:48:29;9.70;;;5.88;;
61471;SDS011;47337;54.068;12.114;2022-10-16T04:50:55;13.27;;;7.15;;
61471;SDS011;47337;54.068;12.114;2022-10-16T04:53:21;15.02;;;6.78;;
61471;SDS011;47337;54.068;12.114;2022-10-16T04:55:46;10.50;;;6.10;;
61471;SDS011;47337;54.068;12.114;2022-10-16T04:58:12;9.25;;;5.95;;
61471;SDS011;47337;54.068;12.114;2022-10-16T05:00:39;13.57;;;6.32;;
61471;SDS011;47337;54.068;12.114;2022-10-16T05:03:05;10.23;;;6.35;;
61471;SDS011;47337;54.068;12.114;2022-10-16T05:05:34;10.18;;;6.10;;
61471;SDS011;47337;54.068;12.114;2022-10-16T05:08:00;13.38;;;6.15;;
61471;SDS011;47337;54.068;12.114;2022-10-16T05:10:26;9.55;;;6.72;;
61471;SDS011;47337;54.068;12.114;2022-10-16T05:12:51;10.73;;;6.22;;
61471;SDS011;47337;54.068;12.114;2022-10-16T05:15:17;14.82;;;6.20;;
61471;SDS011;47337;54.068;12.114;2022-10-16T05:17:43;10.43;;;5.78;;
61471;SDS011;47337;54.068;12.114;2022-10-16T05:20:09;11.57;;;6.25;;
61471;SDS011;47337;54.068;12.114;2022-10-16T05:22:34;13.35;;;6.45;;
61471;SDS011;47337;54.068;12.114;2022-10-16T05:25:00;9.98;;;5.65;;
61471;SDS011;47337;54.068;12.114;2022-10-16T05:27:25;11.63;;;5.80;;
61471;SDS011;47337;54.068;12.114;2022-10-16T05:29:53;8.15;;;5.50;;
61471;SDS011;47337;54.068;12.114;2022-10-16T05:32:18;10.80;;;6.13;;
61471;SDS011;47337;54.068;12.114;2022-10-16T05:34:46;8.77;;;5.40;;
61471;SDS011;47337;54.068;12.114;2022-10-16T05:37:12;7.50;;;5.05;;
61471;SDS011;47337;54.068;12.114;2022-10-16T05:39:39;11.00;;;5.25;;
61471;SDS011;47337;54.068;12.114;2022-10-16T05:42:07;7.68;;;5.05;;
61471;SDS011;47337;54.068;12.114;2022-10-16T05:44:35;7.68;;;4.82;;
61471;SDS011;47337;54.068;12.114;2022-10-16T05:47:03;8.43;;;5.03;;
61471;SDS011;47337;54.068;12.114;2022-10-16T05:49:28;7.72;;;5.15;;
61471;SDS011;47337;54.068;12.114;2022-10-16T05:51:53;7.30;;;4.60;;
61471;SDS011;47337;54.068;12.114;2022-10-16T05:54:21;7.97;;;5.00;;
61471;SDS011;47337;54.068;12.114;2022-10-16T05:56:46;10.10;;;4.70;;
61471;SDS011;47337;54.068;12.114;2022-10-16T05:59:14;11.45;;;4.95;;
61471;SDS011;47337;54.068;12.114;2022-10-16T06:01:40;8.95;;;4.25;;
61471;SDS011;47337;54.068;12.114;2022-10-16T06:04:05;10.48;;;4.47;;
61471;SDS011;47337;54.068;12.114;2022-10-16T06:06:31;10.52;;;4.97;;
61471;SDS011;47337;54.068;12.114;2022-10-16T06:08:56;7.05;;;4.75;;
61471;SDS011;47337;54.068;12.114;2022-10-16T06:11:23;6.55;;;4.43;;
61471;SDS011;47337;54.068;12.114;2022-10-16T06:13:54;7.30;;;4.20;;
61471;SDS011;47337;54.068;12.114;2022-10-16T06:16:22;8.45;;;4.72;;
61471;SDS011;47337;54.068;12.114;2022-10-16T06:18:51;8.18;;;4.28;;
61471;SDS011;47337;54.068;12.114;2022-10-16T06:21:18;6.32;;;4.10;;
61471;SDS011;47337;54.068;12.114;2022-10-16T06:23:45;5.78;;;4.00;;
61471;SDS011;47337;54.068;12.114;2022-10-16T06:26:11;6.82;;;4.45;;
61471;SDS011;47337;54.068;12.114;2022-10-16T06:28:38;6.70;;;4.25;;
61471;SDS011;47337;54.068;12.114;2022-10-16T06:31:04;6.65;;;3.30;;
61471;SDS011;47337;54.068;12.114;2022-10-16T06:33:31;6.00;;;3.65;;
61471;SDS011;47337;54.068;12.114;2022-10-16T06:36:00;6.78;;;3.65;;
61471;SDS011;47337;54.068;12.114;2022-10-16T06:38:29;6.95;;;3.60;;
61471;SDS011;47337;54.068;12.114;2022-10-16T06:40:56;6.15;;;3.67;;
61471;SDS011;47337;54.068;12.114;2022-10-16T06:43:27;5.82;;;3.03;;
61471;SDS011;47337;54.068;12.114;2022-10-16T06:45:57;4.10;;;3.13;;
61471;SDS011;47337;54.068;12.114;2022-10-16T06:48:24;3.67;;;3.05;;
61471;SDS011;47337;54.068;12.114;2022-10-16T06:51:00;5.00;;;3.33;;
61471;SDS011;47337;54.068;12.114;2022-10-16T06:53:29;6.57;;;3.00;;
61471;SDS011;47337;54.068;12.114;2022-10-16T06:55:57;4.97;;;3.00;;
61471;SDS011;47337;54.068;12.114;2022-10-16T06:58:22;3.60;;;2.65;;
61471;SDS011;47337;54.068;12.114;2022-10-16T07:00:48;5.43;;;2.83;;
61471;SDS011;47337;54.068;12.114;2022-10-16T07:03:19;3.00;;;2.50;;
61471;SDS011;47337;54.068;12.114;2022-10-16T07:05:46;4.05;;;2.70;;
61471;SDS011;47337;54.068;12.114;2022-10-16T07:08:11;5.68;;;2.65;;
61471;SDS011;47337;54.068;12.114;2022-10-16T07:10:36;4.22;;;2.25;;
61471;SDS011;47337;54.068;12.114;2022-10-16T07:13:02;5.50;;;2.72;;
61471;SDS011;47337;54.068;12.114;2022-10-16T07:15:28;3.33;;;2.40;;
61471;SDS011;47337;54.068;12.114;2022-10-16T07:17:53;4.22;;;2.22;;
61471;SDS011;47337;54.068;12.114;2022-10-16T07:20:19;3.75;;;1.90;;
61471;SDS011;47337;54.068;12.114;2022-10-16T07:22:44;2.60;;;2.13;;
61471;SDS011;47337;54.068;12.114;2022-10-16T07:25:10;3.47;;;2.10;;
61471;SDS011;47337;54.068;12.114;2022-10-16T07:27:38;2.40;;;1.80;;
61471;SDS011;47337;54.068;12.114;2022-10-16T07:30:05;7.32;;;2.50;;
61471;SDS011;47337;54.068;12.114;2022-10-16T07:32:31;3.03;;;1.75;;
61471;SDS011;47337;54.068;12.114;2022-10-16T07:34:57;5.85;;;2.05;;
61471;SDS011;47337;54.068;12.114;2022-10-16T07:37:24;3.22;;;1.80;;
61471;SDS011;47337;54.068;12.114;2022-10-16T07:39:50;5.35;;;2.10;;
61471;SDS011;47337;54.068;12.114;2022-10-16T07:42:15;3.90;;;2.17;;
61471;SDS011;47337;54.068;12.114;2022-10-16T07:44:42;2.50;;;1.60;;
61471;SDS011;47337;54.068;12.114;2022-10-16T07:47:08;6.90;;;2.20;;
61471;SDS011;47337;54.068;12.114;2022-10-16T07:49:36;2.50;;;1.90;;
61471;SDS011;47337;54.068;12.114;2022-10-16T07:52:01;4.72;;;1.90;;
61471;SDS011;47337;54.068;12.114;2022-10-16T07:54:26;3.35;;;1.70;;
61471;SDS011;47337;54.068;12.114;2022-10-16T07:56:54;4.47;;;1.42;;
61471;SDS011;47337;54.068;12.114;2022-10-16T07:59:20;3.72;;;1.60;;
61471;SDS011;47337;54.068;12.114;2022-10-16T08:01:48;2.35;;;1.30;;
61471;SDS011;47337;54.068;12.114;2022-10-16T08:04:14;3.08;;;1.58;;
61471;SDS011;47337;54.068;12.114;2022-10-16T08:06:40;3.60;;;1.30;;
61471;SDS011;47337;54.068;12.114;2022-10-16T08:09:06;2.55;;;1.50;;
61471;SDS011;47337;54.068;12.114;2022-10-16T08:11:35;2.13;;;1.80;;
61471;SDS011;47337;54.068;12.114;2022-10-16T08:14:00;3.03;;;1.25;;
61471;SDS011;47337;54.068;12.114;2022-10-16T08:16:25;3.30;;;1.33;;
61471;SDS011;47337;54.068;12.114;2022-10-16T08:18:51;1.83;;;1.33;;
61471;SDS011;47337;54.068;12.114;2022-10-16T08:21:18;2.92;;;1.30;;
61471;SDS011;47337;54.068;12.114;2022-10-16T08:23:46;12.20;;;1.42;;
61471;SDS011;47337;54.068;12.114;2022-10-16T08:26:11;2.35;;;1.30;;
61471;SDS011;47337;54.068;12.114;2022-10-16T08:28:39;3.28;;;1.55;;
61471;SDS011;47337;54.068;12.114;2022-10-16T08:31:05;1.00;;;0.90;;
61471;SDS011;47337;54.068;12.114;2022-10-16T08:33:41;6.72;;;1.30;;
61471;SDS011;47337;54.068;12.114;2022-10-16T08:36:11;3.13;;;1.35;;
61471;SDS011;47337;54.068;12.114;2022-10-16T08:38:37;2.45;;;1.45;;
61471;SDS011;47337;54.068;12.114;2022-10-16T08:49:29;2.08;;;1.45;;
61471;SDS011;47337;54.068;12.114;2022-10-16T08:51:55;4.22;;;1.55;;
61471;SDS011;47337;54.068;12.114;2022-10-16T08:54:29;2.10;;;1.30;;
61471;SDS011;47337;54.068;12.114;2022-10-16T08:57:09;1.77;;;1.23;;
61471;SDS011;47337;54.068;12.114;2022-10-16T08:59:38;2.42;;;1.30;;
61471;SDS011;47337;54.068;12.114;2022-10-16T09:02:08;1.98;;;1.20;;
61471;SDS011;47337;54.068;12.114;2022-10-16T09:04:53;4.53;;;1.45;;
61471;SDS011;47337;54.068;12.114;2022-10-16T09:10:02;3.13;;;1.70;;
61471;SDS011;47337;54.068;12.114;2022-10-16T09:12:40;3.50;;;1.55;;
61471;SDS011;47337;54.068;12.114;2022-10-16T09:25:32;2.47;;;1.58;;
61471;SDS011;47337;54.068;12.114;2022-10-16T09:27:59;1.92;;;1.33;;
61471;SDS011;47337;54.068;12.114;2022-10-16T09:30:26;4.18;;;1.75;;
61471;SDS011;47337;54.068;12.114;2022-10-16T09:32:57;2.10;;;1.40;;
61471;SDS011;47337;54.068;12.114;2022-10-16T09:35:42;4.38;;;1.58;;
61471;SDS011;47337;54.068;12.114;2022-10-16T09:38:28;4.38;;;1.38;;
61471;SDS011;47337;54.068;12.114;2022-10-16T09:40:57;2.05;;;1.08;;
61471;SDS011;47337;54.068;12.114;2022-10-16T09:45:56;5.22;;;1.38;;
61471;SDS011;47337;54.068;12.114;2022-10-16T09:48:47;5.47;;;1.83;;
61471;SDS011;47337;54.068;12.114;2022-10-16T09:51:25;3.78;;;1.17;;
61471;SDS011;47337;54.068;12.114;2022-10-16T09:53:55;6.15;;;1.40;;
61471;SDS011;47337;54.068;12.114;2022-10-16T09:56:23;1.30;;;1.20;;
61471;SDS011;47337;54.068;12.114;2022-10-16T09:58:54;2.30;;;0.82;;
61471;SDS011;47337;54.068;12.114;2022-10-16T10:01:35;2.75;;;0.93;;
61471;SDS011;47337;54.068;12.114;2022-10-16T10:04:05;2.15;;;0.77;;
61471;SDS011;47337;54.068;12.114;2022-10-16T10:06:33;2.40;;;0.80;;
61471;SDS011;47337;54.068;12.114;2022-10-16T10:12:02;3.90;;;1.10;;
61471;SDS011;47337;54.068;12.114;2022-10-16T10:17:09;1.70;;;0.88;;
61471;SDS011;47337;54.068;12.114;2022-10-16T10:19:37;3.25;;;1.20;;
61471;SDS011;47337;54.068;12.114;2022-10-16T10:30:25;2.13;;;1.08;;
61471;SDS011;47337;54.068;12.114;2022-10-16T10:33:23;1.02;;;0.82;;
61471;SDS011;47337;54.068;12.114;2022-10-16T10:38:49;1.77;;;0.88;;
61471;SDS011;47337;54.068;12.114;2022-10-16T10:54:49;1.03;;;0.90;;
61471;SDS011;47337;54.068;12.114;2022-10-16T10:58:00;3.97;;;0.90;;
61471;SDS011;47337;54.068;12.114;2022-10-16T11:08:36;1.23;;;1.02;;
61471;SDS011;47337;54.068;12.114;2022-10-16T11:11:29;1.58;;;0.80;;
61471;SDS011;47337;54.068;12.114;2022-10-16T11:14:03;1.35;;;0.60;;
61471;SDS011;47337;54.068;12.114;2022-10-16T11:16:39;1.15;;;0.70;;
61471;SDS011;47337;54.068;12.114;2022-10-16T11:19:18;1.17;;;0.60;;
61471;SDS011;47337;54.068;12.114;2022-10-16T11:21:54;1.98;;;0.90;;
61471;SDS011;47337;54.068;12.114;2022-10-16T11:24:37;1.67;;;0.70;;
61471;SDS011;47337;54.068;12.114;2022-10-16T11:27:11;2.33;;;0.70;;
61471;SDS011;47337;54.068;12.114;2022-10-16T11:30:04;4.63;;;0.70;;
61471;SDS011;47337;54.068;12.114;2022-10-16T11:32:34;2.20;;;0.77;;
61471;SDS011;47337;54.068;12.114;2022-10-16T11:36:00;2.17;;;0.57;;
61471;SDS011;47337;54.068;12.114;2022-10-16T11:40:40;4.88;;;0.80;;
61471;SDS011;47337;54.068;12.114;2022-10-16T11:43:22;1.67;;;0.63;;
61471;SDS011;47337;54.068;12.114;2022-10-16T11:45:54;1.75;;;0.57;;
61471;SDS011;47337;54.068;12.114;2022-10-16T11:48:33;0.95;;;0.50;;
61471;SDS011;47337;54.068;12.114;2022-10-16T11:51:06;0.70;;;0.40;;
61471;SDS011;47337;54.068;12.114;2022-10-16T11:53:50;2.95;;;1.00;;
61471;SDS011;47337;54.068;12.114;2022-10-16T11:56:21;3.10;;;0.73;;
61471;SDS011;47337;54.068;12.114;2022-10-16T12:07:03;0.95;;;0.60;;
61471;SDS011;47337;54.068;12.114;2022-10-16T12:09:34;2.33;;;0.52;;
61471;SDS011;47337;54.068;12.114;2022-10-16T12:12:03;0.70;;;0.52;;
61471;SDS011;47337;54.068;12.114;2022-10-16T12:19:25;2.28;;;0.60;;
61471;SDS011;47337;54.068;12.114;2022-10-16T12:21:58;0.80;;;0.40;;
61471;SDS011;47337;54.068;12.114;2022-10-16T12:27:17;0.93;;;0.40;;
61471;SDS011;47337;54.068;12.114;2022-10-16T12:29:49;3.70;;;1.27;;
61471;SDS011;47337;54.068;12.114;2022-10-16T12:32:27;0.80;;;0.30;;
61471;SDS011;47337;54.068;12.114;2022-10-16T12:34:55;1.13;;;0.60;;
61471;SDS011;47337;54.068;12.114;2022-10-16T12:42:40;2.28;;;0.82;;
61471;SDS011;47337;54.068;12.114;2022-10-16T12:47:58;3.83;;;0.52;;
61471;SDS011;47337;54.068;12.114;2022-10-16T12:50:35;1.17;;;0.35;;
61471;SDS011;47337;54.068;12.114;2022-10-16T12:53:22;2.13;;;0.85;;
61471;SDS011;47337;54.068;12.114;2022-10-16T12:55:58;6.68;;;1.17;;
61471;SDS011;47337;54.068;12.114;2022-10-16T13:05:45;1.65;;;0.40;;
61471;SDS011;47337;54.068;12.114;2022-10-16T13:08:21;3.67;;;0.57;;
61471;SDS011;47337;54.068;12.114;2022-10-16T13:13:53;1.48;;;0.52;;
61471;SDS011;47337;54.068;12.114;2022-10-16T13:28:07;3.08;;;0.50;;
61471;SDS011;47337;54.068;12.114;2022-10-16T13:30:29;1.20;;;0.50;;
61471;SDS011;47337;54.068;12.114;2022-10-16T13:35:50;1.85;;;0.57;;
61471;SDS011;47337;54.068;12.114;2022-10-16T13:38:18;2.30;;;0.68;;
61471;SDS011;47337;54.068;12.114;2022-10-16T13:40:49;1.67;;;0.60;;
61471;SDS011;47337;54.068;12.114;2022-10-16T13:43:20;2.58;;;0.50;;
61471;SDS011;47337;54.068;12.114;2022-10-16T13:45:53;2.67;;;0.52;;
61471;SDS011;47337;54.068;12.114;2022-10-16T13:48:32;2.10;;;0.50;;
61471;SDS011;47337;54.068;12.114;2022-10-16T13:50:59;1.35;;;0.50;;
61471;SDS011;47337;54.068;12.114;2022-10-16T13:53:31;1.48;;;0.38;;
61471;SDS011;47337;54.068;12.114;2022-10-16T13:55:59;0.77;;;0.30;;
61471;SDS011;47337;54.068;12.114;2022-10-16T13:58:28;2.65;;;0.50;;
61471;SDS011;47337;54.068;12.114;2022-10-16T14:00:58;1.20;;;0.50;;
61471;SDS011;47337;54.068;12.114;2022-10-16T14:03:26;1.23;;;0.70;;
61471;SDS011;47337;54.068;12.114;2022-10-16T14:05:57;1.48;;;0.50;;
61471;SDS011;47337;54.068;12.114;2022-10-16T14:08:25;1.50;;;0.57;;
61471;SDS011;47337;54.068;12.114;2022-10-16T14:10:53;6.13;;;1.05;;
61471;SDS011;47337;54.068;12.114;2022-10-16T14:13:34;0.90;;;0.35;;
61471;SDS011;47337;54.068;12.114;2022-10-16T14:16:15;1.85;;;0.55;;
61471;SDS011;47337;54.068;12.114;2022-10-16T14:18:45;1.42;;;0.60;;
61471;SDS011;47337;54.068;12.114;2022-10-16T14:21:19;2.67;;;0.63;;
61471;SDS011;47337;54.068;12.114;2022-10-16T14:23:44;3.13;;;0.50;;
61471;SDS011;47337;54.068;12.114;2022-10-16T14:28:36;10.65;;;1.05;;
61471;SDS011;47337;54.068;12.114;2022-10-16T14:31:25;2.63;;;0.40;;
61471;SDS011;47337;54.068;12.114;2022-10-16T14:33:51;2.65;;;0.60;;
61471;SDS011;47337;54.068;12.114;2022-10-16T14:36:16;2.92;;;0.63;;
61471;SDS011;47337;54.068;12.114;2022-10-16T14:41:29;3.55;;;0.82;;
61471;SDS011;47337;54.068;12.114;2022-10-16T14:43:57;1.90;;;0.60;;
61471;SDS011;47337;54.068;12.114;2022-10-16T14:46:34;1.40;;;0.50;;
61471;SDS011;47337;54.068;12.114;2022-10-16T14:49:13;1.50;;;0.50;;
61471;SDS011;47337;54.068;12.114;2022-10-16T14:51:45;3.00;;;0.88;;
61471;SDS011;47337;54.068;12.114;2022-10-16T14:54:11;2.03;;;0.60;;
61471;SDS011;47337;54.068;12.114;2022-10-16T14:56:51;2.78;;;0.55;;
61471;SDS011;47337;54.068;12.114;2022-10-16T14:59:25;1.65;;;0.60;;
61471;SDS011;47337;54.068;12.114;2022-10-16T15:01:57;2.78;;;0.80;;
61471;SDS011;47337;54.068;12.114;2022-10-16T15:04:23;2.22;;;0.70;;
61471;SDS011;47337;54.068;12.114;2022-10-16T15:06:48;5.72;;;0.93;;
61471;SDS011;47337;54.068;12.114;2022-10-16T15:09:14;3.05;;;0.70;;
61471;SDS011;47337;54.068;12.114;2022-10-16T15:11:39;0.75;;;0.50;;
61471;SDS011;47337;54.068;12.114;2022-10-16T15:14:08;3.15;;;0.95;;
61471;SDS011;47337;54.068;12.114;2022-10-16T15:16:38;2.25;;;1.10;;
61471;SDS011;47337;54.068;12.114;2022-10-16T15:19:06;2.63;;;0.85;;
61471;SDS011;47337;54.068;12.114;2022-10-16T15:21:32;1.63;;;0.82;;
61471;SDS011;47337;54.068;12.114;2022-10-16T15:23:59;3.47;;;0.60;;
61471;SDS011;47337;54.068;12.114;2022-10-16T15:26:26;2.47;;;1.00;;
61471;SDS011;47337;54.068;12.114;2022-10-16T15:28:52;2.65;;;0.80;;
61471;SDS011;47337;54.068;12.114;2022-10-16T15:31:18;3.33;;;1.08;;
61471;SDS011;47337;54.068;12.114;2022-10-16T15:33:44;1.58;;;0.90;;
61471;SDS011;47337;54.068;12.114;2022-10-16T15:36:12;1.92;;;0.73;;
61471;SDS011;47337;54.068;12.114;2022-10-16T15:38:40;4.13;;;0.80;;
61471;SDS011;47337;54.068;12.114;2022-10-16T15:41:06;5.53;;;1.20;;
61471;SDS011;47337;54.068;12.114;2022-10-16T15:43:33;3.08;;;0.90;;
61471;SDS011;47337;54.068;12.114;2022-10-16T15:46:06;3.03;;;0.93;;
61471;SDS011;47337;54.068;12.114;2022-10-16T15:48:39;2.60;;;0.90;;
61471;SDS011;47337;54.068;12.114;2022-10-16T15:51:08;2.85;;;1.05;;
61471;SDS011;47337;54.068;12.114;2022-10-16T15:53:39;2.45;;;0.80;;
61471;SDS011;47337;54.068;12.114;2022-10-16T15:56:05;6.00;;;1.60;;
61471;SDS011;47337;54.068;12.114;2022-10-16T15:58:32;3.00;;;1.15;;
61471;SDS011;47337;54.068;12.114;2022-10-16T16:00:57;3.63;;;1.15;;
61471;SDS011;47337;54.068;12.114;2022-10-16T16:03:25;4.75;;;1.35;;
61471;SDS011;47337;54.068;12.114;2022-10-16T16:05:51;2.80;;;0.95;;
61471;SDS011;47337;54.068;12.114;2022-10-16T16:08:17;3.90;;;0.95;;
61471;SDS011;47337;54.068;12.114;2022-10-16T16:10:45;4.00;;;1.00;;
61471;SDS011;47337;54.068;12.114;2022-10-16T16:13:10;4.90;;;1.55;;
61471;SDS011;47337;54.068;12.114;2022-10-16T16:15:39;4.20;;;1.20;;
61471;SDS011;47337;54.068;12.114;2022-10-16T16:18:05;2.05;;;0.98;;
61471;SDS011;47337;54.068;12.114;2022-10-16T16:20:31;5.40;;;1.15;;
61471;SDS011;47337;54.068;12.114;2022-10-16T16:22:57;6.03;;;1.20;;
61471;SDS011;47337;54.068;12.114;2022-10-16T16:25:22;3.78;;;1.40;;
61471;SDS011;47337;54.068;12.114;2022-10-16T16:27:47;3.10;;;1.27;;
61471;SDS011;47337;54.068;12.114;2022-10-16T16:30:13;3.63;;;1.90;;
61471;SDS011;47337;54.068;12.114;2022-10-16T16:32:38;6.88;;;2.50;;
61471;SDS011;47337;54.068;12.114;2022-10-16T16:35:04;7.20;;;3.88;;
61471;SDS011;47337;54.068;12.114;2022-10-16T16:37:30;4.22;;;3.35;;
61471;SDS011;47337;54.068;12.114;2022-10-16T16:39:56;5.15;;;3.08;;
61471;SDS011;47337;54.068;12.114;2022-10-16T16:42:23;7.70;;;3.17;;
61471;SDS011;47337;54.068;12.114;2022-10-16T16:44:50;7.28;;;3.30;;
61471;SDS011;47337;54.068;12.114;2022-10-16T16:47:18;6.50;;;3.55;;
61471;SDS011;47337;54.068;12.114;2022-10-16T16:49:44;3.60;;;2.50;;
61471;SDS011;47337;54.068;12.114;2022-10-16T16:52:11;8.13;;;3.00;;
61471;SDS011;47337;54.068;12.114;2022-10-16T16:54:39;5.30;;;3.17;;
61471;SDS011;47337;54.068;12.114;2022-10-16T16:57:04;4.35;;;2.90;;
61471;SDS011;47337;54.068;12.114;2022-10-16T16:59:30;4.65;;;3.10;;
61471;SDS011;47337;54.068;12.114;2022-10-16T17:01:57;8.93;;;4.60;;
61471;SDS011;47337;54.068;12.114;2022-10-16T17:04:26;8.50;;;4.45;;
61471;SDS011;47337;54.068;12.114;2022-10-16T17:06:54;6.38;;;3.80;;